createdAt,value
2022-11-21T00:00:24.462Z,100464.56
2022-11-21T00:02:53.044Z,100452.31
2022-11-21T00:05:21.529Z,100456.78
2022-11-21T00:07:49.885Z,100442.91
2022-11-21T00:10:18.535Z,100454.31
2022-11-21T00:12:48.487Z,100456.03
2022-11-21T00:15:16.981Z,100450.78
2022-11-21T00:17:45.214Z,100416.56
2022-11-21T00:20:13.676Z,100434.16
2022-11-21T00:22:41.955Z,100433.31
2022-11-21T00:25:11.406Z,100420.13
2022-11-21T00:27:39.815Z,100441.19
2022-11-21T00:30:12.498Z,100435.00
2022-11-21T00:32:40.887Z,100437.63
2022-11-21T00:35:09.967Z,100424.50
2022-11-21T00:37:38.311Z,100435.03
2022-11-21T00:40:08.072Z,100439.41
2022-11-21T00:42:36.445Z,100439.41
2022-11-21T00:45:05.383Z,100358.69
2022-11-21T00:47:35.125Z,100438.56
2022-11-21T00:50:03.565Z,100435.94
2022-11-21T00:52:32.011Z,100421.88
2022-11-21T00:55:00.290Z,100441.13
2022-11-21T00:57:28.607Z,100450.81
2022-11-21T00:59:56.906Z,100446.38
2022-11-21T01:02:25.267Z,100453.44
2022-11-21T01:04:55.014Z,100464.84
2022-11-21T01:07:23.440Z,100468.41
2022-11-21T01:09:51.830Z,100474.53
2022-11-21T01:12:20.153Z,100471.91
2022-11-21T01:14:48.485Z,100460.47
2022-11-21T01:17:16.753Z,100462.25
2022-11-21T01:19:45.112Z,100446.47
2022-11-21T01:22:14.818Z,100441.19
2022-11-21T01:24:43.199Z,100433.91
2022-11-21T01:27:11.503Z,100433.13
2022-11-21T01:29:39.806Z,100407.66
2022-11-21T01:32:08.187Z,100426.09
2022-11-21T01:34:36.448Z,100420.78
2022-11-21T01:37:04.810Z,100418.66
2022-11-21T01:39:34.400Z,100419.19
2022-11-21T01:42:02.738Z,100421.06
2022-11-21T01:44:49.865Z,100428.97
2022-11-21T01:47:18.943Z,100431.59
2022-11-21T01:49:48.250Z,100424.47
2022-11-21T01:52:22.857Z,100434.09
2022-11-21T01:54:57.759Z,100427.66
2022-11-21T01:57:29.611Z,100434.81
2022-11-21T02:00:02.411Z,100437.72
2022-11-21T02:02:38.871Z,100421.38
2022-11-21T02:05:10.649Z,100422.31
2022-11-21T02:07:44.643Z,100432.44
2022-11-21T02:10:15.811Z,100395.66
2022-11-21T02:12:50.551Z,100419.63
2022-11-21T02:15:19.566Z,100432.94
2022-11-21T02:17:47.869Z,100425.94
2022-11-21T02:20:18.818Z,100454.06
2022-11-21T02:22:57.951Z,100438.22
2022-11-21T02:25:29.673Z,100435.41
2022-11-21T02:28:02.364Z,100430.19
2022-11-21T02:30:33.218Z,100423.66
2022-11-21T02:33:01.573Z,100416.47
2022-11-21T02:35:30.042Z,100425.22
2022-11-21T02:38:02.281Z,100425.16
2022-11-21T02:40:36.402Z,100421.44
2022-11-21T02:43:13.729Z,100429.63
2022-11-21T02:45:44.122Z,100422.47
2022-11-21T02:48:13.394Z,100424.88
2022-11-21T02:50:44.028Z,100392.34
2022-11-21T02:53:13.783Z,100392.25
2022-11-21T02:55:44.477Z,100399.06
2022-11-21T02:58:13.794Z,100395.69
2022-11-21T03:00:43.950Z,100418.31
2022-11-21T03:03:12.648Z,100398.44
2022-11-21T03:05:41.546Z,100269.06
2022-11-21T03:08:10.226Z,100413.44
2022-11-21T03:10:38.939Z,100382.88
2022-11-21T03:13:08.669Z,100388.00
2022-11-21T03:15:37.350Z,100377.06
2022-11-21T03:18:06.408Z,100390.94
2022-11-21T03:20:36.031Z,100389.50
2022-11-21T03:23:04.733Z,100392.94
2022-11-21T03:25:33.150Z,100369.34
2022-11-21T03:28:01.373Z,100375.41
2022-11-21T03:30:30.997Z,100383.97
2022-11-21T03:32:59.748Z,100378.59
2022-11-21T03:35:27.994Z,100379.91
2022-11-21T03:37:56.257Z,100382.88
2022-11-21T03:40:24.545Z,100384.81
2022-11-21T03:42:52.746Z,100373.59
2022-11-21T03:45:20.962Z,100369.31
2022-11-21T03:47:50.561Z,100370.25
2022-11-21T03:50:20.988Z,100370.31
2022-11-21T03:52:49.348Z,100377.97
2022-11-21T03:55:17.759Z,100351.16
2022-11-21T03:57:46.036Z,100371.50
2022-11-21T04:00:16.628Z,100372.72
2022-11-21T04:02:44.700Z,100359.38
2022-11-21T04:05:14.393Z,100372.41
2022-11-21T04:07:42.755Z,100369.50
2022-11-21T04:10:11.793Z,100369.28
2022-11-21T04:12:40.101Z,100369.09
2022-11-21T04:15:13.446Z,100361.41
2022-11-21T04:17:42.455Z,100360.69
2022-11-21T04:20:13.722Z,100304.38
2022-11-21T04:22:41.993Z,100353.41
2022-11-21T04:25:10.673Z,100354.31
2022-11-21T04:27:38.947Z,100326.06
2022-11-21T04:30:08.602Z,100346.31
2022-11-21T04:32:37.001Z,100356.00
2022-11-21T04:35:06.319Z,100349.72
2022-11-21T04:37:35.947Z,100346.91
2022-11-21T04:40:04.741Z,100343.50
2022-11-21T04:42:32.937Z,100300.38
2022-11-21T04:45:01.179Z,100211.13
2022-11-21T04:47:29.586Z,100319.19
2022-11-21T04:49:57.860Z,100317.56
2022-11-21T04:52:26.156Z,100313.09
2022-11-21T04:54:55.776Z,100310.72
2022-11-21T04:57:24.919Z,100300.44
2022-11-21T04:59:53.344Z,100310.28
2022-11-21T05:02:21.712Z,100311.25
2022-11-21T05:04:50.166Z,100326.91
2022-11-21T05:07:19.020Z,100305.06
2022-11-21T05:09:47.340Z,100309.19
2022-11-21T05:12:34.351Z,100303.00
2022-11-21T05:15:02.850Z,100291.75
2022-11-21T05:17:31.397Z,100306.84
2022-11-21T05:19:59.687Z,100303.56
2022-11-21T05:22:27.973Z,100278.19
2022-11-21T05:24:56.318Z,100294.66
2022-11-21T05:27:25.953Z,100288.38
2022-11-21T05:29:55.361Z,100282.28
2022-11-21T05:32:24.718Z,100145.44
2022-11-21T05:34:53.019Z,100266.53
2022-11-21T05:37:21.982Z,100272.66
2022-11-21T05:39:50.313Z,100268.31
2022-11-21T05:42:38.860Z,100265.69
2022-11-21T05:45:09.698Z,100263.00
2022-11-21T05:47:38.246Z,100258.72
2022-11-21T05:50:07.584Z,100265.63
2022-11-21T05:52:35.846Z,100261.28
2022-11-21T05:55:04.295Z,100269.25
2022-11-21T05:57:32.724Z,100263.34
2022-11-21T06:00:00.953Z,100266.09
2022-11-21T06:02:48.049Z,100261.88
2022-11-21T06:05:16.556Z,100267.19
2022-11-21T06:07:44.902Z,100254.19
2022-11-21T06:10:13.235Z,100229.69
2022-11-21T06:12:41.440Z,100243.78
2022-11-21T06:15:10.840Z,100240.31
2022-11-21T06:17:40.493Z,100250.81
2022-11-21T06:20:11.412Z,100251.69
2022-11-21T06:22:39.740Z,100235.97
2022-11-21T06:25:08.805Z,100246.47
2022-11-21T06:27:37.066Z,100243.81
2022-11-21T06:30:06.048Z,100239.44
2022-11-21T06:32:39.826Z,100226.25
2022-11-21T06:35:09.049Z,100223.59
2022-11-21T06:37:37.393Z,100228.00
2022-11-21T06:40:07.245Z,100219.28
2022-11-21T06:42:35.541Z,100204.38
2022-11-21T06:45:03.962Z,100205.31
2022-11-21T06:47:35.426Z,100172.81
2022-11-21T06:50:05.546Z,100206.19
2022-11-21T06:52:34.511Z,100198.25
2022-11-21T06:55:02.874Z,100191.13
2022-11-21T06:57:32.729Z,100153.38
2022-11-21T07:00:01.105Z,100194.69
2022-11-21T07:02:29.385Z,100206.94
2022-11-21T07:04:57.784Z,100202.41
2022-11-21T07:07:27.470Z,100201.53
2022-11-21T07:09:55.802Z,100163.84
2022-11-21T07:12:41.660Z,100202.44
2022-11-21T07:15:12.063Z,100186.66
2022-11-21T07:17:40.337Z,100183.13
2022-11-21T07:20:10.294Z,100189.25
2022-11-21T07:22:40.097Z,100156.88
2022-11-21T07:25:09.050Z,100143.72
2022-11-21T07:27:37.350Z,100188.41
2022-11-21T07:30:06.540Z,100194.66
2022-11-21T07:32:34.842Z,100191.25
2022-11-21T07:35:03.123Z,100189.34
2022-11-21T07:37:31.482Z,100194.59
2022-11-21T07:40:01.087Z,100180.66
2022-11-21T07:42:29.344Z,100179.75
2022-11-21T07:44:58.048Z,100166.72
2022-11-21T07:47:26.399Z,100177.22
2022-11-21T07:49:54.708Z,100150.09
2022-11-21T07:52:23.093Z,100172.03
2022-11-21T07:54:51.382Z,100173.78
2022-11-21T07:57:21.058Z,100174.72
2022-11-21T07:59:49.575Z,100179.97
2022-11-21T08:02:21.192Z,100168.56
2022-11-21T08:04:49.866Z,100172.94
2022-11-21T08:07:20.832Z,100160.66
2022-11-21T08:09:49.562Z,100157.97
2022-11-21T08:12:18.559Z,100149.16
2022-11-21T08:14:48.230Z,100180.63
2022-11-21T08:17:18.491Z,100145.44
2022-11-21T08:19:46.826Z,100137.44
2022-11-21T08:22:15.043Z,100139.97
2022-11-21T08:24:43.495Z,100128.19
2022-11-21T08:27:11.807Z,100124.16
2022-11-21T08:29:40.084Z,100115.84
2022-11-21T08:32:09.978Z,100131.00
2022-11-21T08:34:38.497Z,100142.75
2022-11-21T08:37:06.798Z,100127.16
2022-11-21T08:39:36.032Z,100144.91
2022-11-21T08:42:04.455Z,100106.38
2022-11-21T08:44:33.678Z,100141.56
2022-11-21T08:47:03.297Z,100144.38
2022-11-21T08:49:33.221Z,100143.78
2022-11-21T08:52:01.549Z,100146.75
2022-11-21T08:54:30.212Z,100145.50
2022-11-21T08:56:58.732Z,100136.06
2022-11-21T08:59:26.981Z,100141.13
2022-11-21T09:01:55.461Z,100093.47
2022-11-21T09:04:23.994Z,100111.22
2022-11-21T09:06:53.651Z,100104.22
2022-11-21T09:09:25.326Z,100103.34
2022-11-21T09:11:54.243Z,100105.00
2022-11-21T09:14:49.517Z,100083.66
2022-11-21T09:17:35.787Z,100106.22
2022-11-21T09:20:04.553Z,100106.22
2022-11-21T09:22:34.236Z,100115.22
2022-11-21T09:25:02.718Z,100106.09
2022-11-21T09:27:32.394Z,100109.97
2022-11-21T09:30:00.623Z,100101.38
2022-11-21T09:32:28.917Z,100105.69
2022-11-21T09:34:57.267Z,100107.91
2022-11-21T09:37:25.581Z,100087.16
2022-11-21T09:39:55.343Z,100099.31
2022-11-21T09:42:51.933Z,100101.91
2022-11-21T09:45:26.964Z,100083.97
2022-11-21T09:47:56.701Z,100091.38
2022-11-21T09:50:31.443Z,100077.97
2022-11-21T09:53:04.325Z,100082.25
2022-11-21T09:55:45.328Z,100085.88
2022-11-21T09:58:24.352Z,100070.50
2022-11-21T10:00:53.533Z,100061.50
2022-11-21T10:03:26.161Z,100065.16
2022-11-21T10:06:00.668Z,100051.44
2022-11-21T10:08:36.235Z,100035.88
2022-11-21T10:11:20.314Z,100049.53
2022-11-21T10:14:05.545Z,100039.41
2022-11-21T10:16:44.690Z,100040.09
2022-11-21T10:19:59.025Z,100036.97
2022-11-21T10:22:49.323Z,100017.63
2022-11-21T10:25:27.164Z,100021.91
2022-11-21T10:28:03.456Z,100036.00
2022-11-21T10:30:31.785Z,100031.44
2022-11-21T10:33:04.678Z,100003.94
2022-11-21T10:35:44.846Z,100013.19
2022-11-21T10:38:23.094Z,100023.78
2022-11-21T10:40:55.987Z,100023.38
2022-11-21T10:43:54.191Z,100020.03
2022-11-21T10:46:22.601Z,100013.19
2022-11-21T10:48:59.525Z,99988.13
2022-11-21T10:51:40.793Z,100016.00
2022-11-21T10:54:29.530Z,100007.97
2022-11-21T10:57:06.832Z,100015.34
2022-11-21T10:59:36.647Z,99998.19
2022-11-21T11:02:24.655Z,100002.47
2022-11-21T11:05:24.861Z,99980.34
2022-11-21T11:08:09.298Z,99985.66
2022-11-21T11:10:39.918Z,99977.63
2022-11-21T11:13:50.144Z,99967.66
2022-11-21T11:16:19.869Z,99969.66
2022-11-21T11:18:57.338Z,99942.91
2022-11-21T11:21:30.077Z,99961.47
2022-11-21T11:24:22.289Z,99960.66
2022-11-21T11:27:00.007Z,99932.06
2022-11-21T11:29:31.010Z,99958.41
2022-11-21T11:32:04.343Z,99938.69
2022-11-21T11:34:40.944Z,99927.03
2022-11-21T11:37:21.858Z,99928.47
2022-11-21T11:40:16.966Z,99914.56
2022-11-21T11:43:32.404Z,99905.84
2022-11-21T11:46:33.678Z,99890.31
2022-11-21T11:49:22.364Z,99893.59
2022-11-21T11:51:55.943Z,99892.50
2022-11-21T11:54:31.506Z,99864.31
2022-11-21T11:57:01.041Z,99871.13
2022-11-21T11:59:35.027Z,99856.56
2022-11-21T12:02:11.866Z,99859.28
2022-11-21T12:04:49.078Z,99856.50
2022-11-21T12:10:19.522Z,99839.34
2022-11-21T12:12:53.883Z,99830.72
2022-11-21T12:15:44.294Z,99809.16
2022-11-21T12:18:25.169Z,99808.59
2022-11-21T12:21:00.437Z,99787.78
2022-11-21T12:23:33.233Z,99791.13
2022-11-21T12:26:19.571Z,99790.13
2022-11-21T12:29:04.182Z,99777.91
2022-11-21T12:31:48.336Z,99769.94
2022-11-21T12:34:35.417Z,99760.50
2022-11-21T12:37:19.227Z,99759.19
2022-11-21T12:40:10.722Z,99748.56
2022-11-21T12:42:51.476Z,99720.63
2022-11-21T12:45:28.858Z,99693.53
2022-11-21T12:48:37.827Z,99712.50
2022-11-21T12:51:54.103Z,99698.88
2022-11-21T12:54:43.129Z,99698.72
2022-11-21T12:57:13.991Z,99682.13
2022-11-21T12:59:53.757Z,99675.94
2022-11-21T13:02:37.188Z,99648.13
2022-11-21T13:05:11.295Z,99670.69
2022-11-21T13:07:41.020Z,99574.88
2022-11-21T13:10:16.924Z,99660.81
2022-11-21T13:12:49.485Z,99655.72
2022-11-21T13:15:26.693Z,99653.91
2022-11-21T13:18:00.334Z,99652.44
2022-11-21T13:20:35.308Z,99645.16
2022-11-21T13:23:06.534Z,99635.44
2022-11-21T13:25:48.690Z,99635.31
2022-11-21T13:28:38.815Z,99631.16
2022-11-21T13:31:30.859Z,99616.09
2022-11-21T13:34:00.512Z,99454.38
2022-11-21T13:36:44.316Z,99592.34
2022-11-21T13:39:38.931Z,99580.81
2022-11-21T13:42:30.378Z,99606.16
2022-11-21T13:44:58.996Z,99590.44
2022-11-21T13:48:17.663Z,99601.25
2022-11-21T13:51:32.000Z,99593.53
2022-11-21T13:54:24.662Z,99583.38
2022-11-21T13:57:11.449Z,99581.34
2022-11-21T13:59:57.453Z,99576.03
2022-11-21T14:02:56.112Z,99557.63
2022-11-21T14:06:00.400Z,99572.66
2022-11-21T14:08:30.196Z,99558.72
2022-11-21T14:10:59.534Z,99544.69
2022-11-21T14:13:31.277Z,99539.25
2022-11-21T14:16:25.359Z,99549.88
2022-11-21T14:18:55.686Z,99551.56
2022-11-21T14:21:27.953Z,99536.72
2022-11-21T14:23:59.253Z,99557.00
2022-11-21T14:26:29.814Z,99541.44
2022-11-21T14:29:18.824Z,99539.66
2022-11-21T14:31:48.707Z,99526.47
2022-11-21T14:34:28.596Z,99541.34
2022-11-21T14:37:01.407Z,99503.00
2022-11-21T14:39:39.930Z,99530.91
2022-11-21T14:42:13.921Z,99520.38
2022-11-21T14:44:42.298Z,99538.16
2022-11-21T14:47:21.567Z,99528.25
2022-11-21T14:49:59.769Z,99508.59
2022-11-21T14:52:31.919Z,99491.63
2022-11-21T14:57:52.127Z,99475.00
2022-11-21T15:00:57.318Z,99441.25
2022-11-21T15:03:21.605Z,99481.25
2022-11-21T15:06:04.711Z,99474.53
2022-11-21T15:11:27.172Z,99463.03
2022-11-21T15:14:17.469Z,99476.16
2022-11-21T15:16:47.841Z,99459.41
2022-11-21T15:19:22.544Z,99436.81
2022-11-21T15:21:53.792Z,99431.50
2022-11-21T15:24:32.736Z,99444.59
2022-11-21T15:27:01.617Z,99441.97
2022-11-21T15:29:50.260Z,99459.72
2022-11-21T15:32:18.624Z,99418.50
2022-11-21T15:34:47.289Z,99427.19
2022-11-21T15:37:19.550Z,99414.88
2022-11-21T15:39:50.942Z,99402.66
2022-11-21T15:42:43.789Z,99376.75
2022-11-21T15:45:26.889Z,99378.41
2022-11-21T15:47:56.920Z,99405.53
2022-11-21T15:50:26.313Z,99369.53
2022-11-21T15:52:56.010Z,99389.59
2022-11-21T15:55:29.295Z,99385.09
2022-11-21T15:57:57.737Z,99381.47
2022-11-21T16:00:26.303Z,99383.53
2022-11-21T16:02:54.555Z,99382.47
2022-11-21T16:05:22.798Z,99408.13
2022-11-21T16:07:51.267Z,99368.69
2022-11-21T16:10:27.486Z,99353.72
2022-11-21T16:12:56.831Z,99348.59
2022-11-21T16:15:25.198Z,99341.47
2022-11-21T16:17:54.079Z,99346.78
2022-11-21T16:20:22.491Z,99327.41
2022-11-21T16:22:50.935Z,99326.50
2022-11-21T16:25:20.555Z,99320.63
2022-11-21T16:27:48.962Z,99320.47
2022-11-21T16:30:17.487Z,99319.63
2022-11-21T16:32:47.056Z,99274.47
2022-11-21T16:35:15.787Z,99293.47
2022-11-21T16:37:44.354Z,99300.28
2022-11-21T16:40:13.232Z,99316.91
2022-11-21T16:42:43.022Z,99293.22
2022-11-21T16:45:11.966Z,99294.44
2022-11-21T16:47:44.253Z,99281.66
2022-11-21T16:50:15.899Z,99290.50
2022-11-21T16:52:44.202Z,99299.00
2022-11-21T16:55:12.666Z,99292.81
2022-11-21T16:57:43.329Z,99296.59
2022-11-21T17:00:13.034Z,99233.97
2022-11-21T17:02:41.417Z,99255.56
2022-11-21T17:05:10.824Z,99250.16
2022-11-21T17:07:39.155Z,99259.78
2022-11-21T17:10:08.670Z,99244.13
2022-11-21T17:12:41.921Z,99246.00
2022-11-21T17:15:14.374Z,99235.34
2022-11-21T17:17:43.311Z,99205.00
2022-11-21T17:20:12.452Z,99215.41
2022-11-21T17:22:40.825Z,99221.31
2022-11-21T17:25:10.368Z,99217.13
2022-11-21T17:27:38.841Z,99124.94
2022-11-21T17:30:09.203Z,99213.59
2022-11-21T17:32:38.963Z,99201.94
2022-11-21T17:35:08.932Z,99184.72
2022-11-21T17:37:37.213Z,99196.66
2022-11-21T17:40:10.958Z,99192.38
2022-11-21T17:42:40.724Z,99187.91
2022-11-21T17:45:10.170Z,99178.25
2022-11-21T17:47:41.418Z,99161.63
2022-11-21T17:50:09.982Z,99158.25
2022-11-21T17:52:38.774Z,99171.97
2022-11-21T17:55:07.922Z,99179.97
2022-11-21T17:57:36.200Z,99172.56
2022-11-21T18:00:05.303Z,99165.66
2022-11-21T18:02:36.020Z,99151.50
2022-11-21T18:05:06.754Z,99148.09
2022-11-21T18:07:37.858Z,99130.72
2022-11-21T18:10:35.226Z,99150.66
2022-11-21T18:12:56.021Z,99137.59
2022-11-21T18:15:24.272Z,99096.06
2022-11-21T18:17:55.354Z,99122.16
2022-11-21T18:20:25.153Z,99117.88
2022-11-21T18:22:53.529Z,99128.44
2022-11-21T18:25:21.769Z,99122.38
2022-11-21T18:27:54.491Z,99113.72
2022-11-21T18:30:23.301Z,99097.19
2022-11-21T18:32:52.067Z,99119.75
2022-11-21T18:35:20.542Z,99095.81
2022-11-21T18:37:50.238Z,99086.81
2022-11-21T18:40:19.049Z,99068.41
2022-11-21T18:42:47.607Z,99096.88
2022-11-21T18:45:16.005Z,99093.56
2022-11-21T18:47:44.413Z,99085.91
2022-11-21T18:50:12.848Z,99066.75
2022-11-21T18:52:46.420Z,99083.47
2022-11-21T18:55:16.737Z,99066.72
2022-11-21T18:57:45.120Z,99064.00
2022-11-21T19:00:14.826Z,98970.59
2022-11-21T19:02:43.281Z,99057.09
2022-11-21T19:05:14.021Z,99051.91
2022-11-21T19:07:46.121Z,99033.00
2022-11-21T19:10:41.497Z,99043.03
2022-11-21T19:13:04.438Z,99060.63
2022-11-21T19:15:32.953Z,99032.69
2022-11-21T19:18:01.213Z,99036.22
2022-11-21T19:20:29.649Z,99051.59
2022-11-21T19:22:57.999Z,99043.53
2022-11-21T19:25:27.744Z,99012.22
2022-11-21T19:27:56.204Z,99028.91
2022-11-21T19:30:24.683Z,98963.13
2022-11-21T19:32:53.085Z,99037.78
2022-11-21T19:35:23.654Z,98940.47
2022-11-21T19:37:52.011Z,99020.03
2022-11-21T19:40:20.474Z,99033.16
2022-11-21T19:42:50.225Z,99026.41
2022-11-21T19:45:18.652Z,98978.59
2022-11-21T19:47:47.799Z,98993.03
2022-11-21T19:50:17.159Z,99008.13
2022-11-21T19:52:45.465Z,99006.75
2022-11-21T19:55:13.886Z,98992.38
2022-11-21T19:57:42.297Z,98992.19
2022-11-21T20:00:13.806Z,98988.59
2022-11-21T20:02:43.573Z,98984.44
2022-11-21T20:05:11.837Z,98980.09
2022-11-21T20:07:40.146Z,98980.06
2022-11-21T20:10:09.321Z,98965.16
2022-11-21T20:12:37.791Z,98945.00
2022-11-21T20:15:07.200Z,98944.22
2022-11-21T20:17:37.023Z,98933.66
2022-11-21T20:20:06.939Z,98937.75
2022-11-21T20:22:35.278Z,98927.41
2022-11-21T20:25:03.682Z,98933.75
2022-11-21T20:27:32.605Z,98932.19
2022-11-21T20:30:01.063Z,98923.06
2022-11-21T20:32:29.528Z,98924.06
2022-11-21T20:34:59.390Z,98927.47
2022-11-21T20:37:27.778Z,98893.88
2022-11-21T20:39:56.094Z,98857.91
2022-11-21T20:42:24.446Z,98906.38
2022-11-21T20:47:40.986Z,98884.09
2022-11-21T20:50:21.458Z,98909.78
2022-11-21T20:55:48.326Z,98893.06
2022-11-21T20:58:16.808Z,98900.00
2022-11-21T21:00:45.122Z,98909.72
2022-11-21T21:03:13.890Z,98898.97
2022-11-21T21:05:43.655Z,98906.84
2022-11-21T21:08:11.989Z,98892.91
2022-11-21T21:11:04.580Z,98902.81
2022-11-21T21:13:28.986Z,98883.97
2022-11-21T21:16:04.383Z,98875.38
2022-11-21T21:18:34.695Z,98917.50
2022-11-21T21:21:16.871Z,98865.22
2022-11-21T21:23:49.511Z,98877.16
2022-11-21T21:26:20.434Z,98848.34
2022-11-21T21:28:49.325Z,98856.72
2022-11-21T21:31:20.114Z,98885.97
2022-11-21T21:33:49.514Z,98914.66
2022-11-21T21:36:21.295Z,98897.06
2022-11-21T21:38:52.253Z,98891.66
2022-11-21T21:41:21.114Z,98901.25
2022-11-21T21:43:51.163Z,98907.34
2022-11-21T21:46:21.547Z,98912.72
2022-11-21T21:48:52.558Z,98877.97
2022-11-21T21:51:23.970Z,98897.28
2022-11-21T21:53:54.085Z,98883.56
2022-11-21T21:56:24.608Z,98895.78
2022-11-21T21:58:53.381Z,98886.91
2022-11-21T22:01:24.287Z,98882.28
2022-11-21T22:03:56.074Z,98883.22
2022-11-21T22:06:26.228Z,98884.88
2022-11-21T22:08:56.261Z,98883.97
2022-11-21T22:11:26.735Z,98889.22
2022-11-21T22:13:57.934Z,98865.84
2022-11-21T22:16:26.611Z,98891.59
2022-11-21T22:18:55.189Z,98911.53
2022-11-21T22:21:28.010Z,98886.16
2022-11-21T22:26:47.670Z,98856.41
2022-11-21T22:29:16.005Z,98859.88
2022-11-21T22:31:44.319Z,98857.06
2022-11-21T22:34:14.415Z,98857.00
2022-11-21T22:36:44.725Z,98878.19
2022-11-21T22:39:13.336Z,98839.28
2022-11-21T22:41:41.645Z,98859.38
2022-11-21T22:44:10.115Z,98851.31
2022-11-21T22:46:38.592Z,98848.66
2022-11-21T22:49:06.864Z,98846.03
2022-11-21T22:51:35.185Z,98840.13
2022-11-21T22:54:04.944Z,98827.06
2022-11-21T22:56:33.297Z,98834.78
2022-11-21T22:59:01.586Z,98825.31
2022-11-21T23:01:30.041Z,98819.59
2022-11-21T23:03:58.614Z,98848.13
2022-11-21T23:06:28.361Z,98842.19
2022-11-21T23:08:57.761Z,98834.69
2022-11-21T23:11:29.677Z,98830.19
2022-11-21T23:13:58.582Z,98836.03
2022-11-21T23:16:28.596Z,98812.88
2022-11-21T23:18:57.671Z,98836.03
2022-11-21T23:21:25.881Z,98828.09
2022-11-21T23:23:54.173Z,98806.53
2022-11-21T23:26:22.487Z,98788.38
2022-11-21T23:28:52.110Z,98817.78
2022-11-21T23:31:20.398Z,98838.72
2022-11-21T23:33:48.712Z,98833.34
2022-11-21T23:36:16.926Z,98842.94
2022-11-21T23:38:45.178Z,98838.78
2022-11-21T23:41:13.427Z,98849.53
2022-11-21T23:43:41.724Z,98828.94
2022-11-21T23:46:11.408Z,98851.44
2022-11-21T23:48:39.733Z,98836.06
2022-11-21T23:51:08.050Z,98842.81
2022-11-21T23:53:36.465Z,98847.19
2022-11-21T23:56:05.578Z,98848.78
2022-11-21T23:58:33.870Z,98839.22
